ECSPL GCLB-GCLB
Flight info
| Callsign | ECSPL |
|---|---|
| Flight time | 0h 20m |
| Altitude | 6000 |
| Route | VFR |
| Aircraft | C172/L-SFG/C |
Departure
| Time | 2026-05-04 12:45 |
|---|---|
| Airport | El Berriel Aeroc Airport (GCLB) |
Arrival
| Time | 2026-05-04 13:05 |
|---|---|
| Airport | El Berriel Aeroc Airport (GCLB) |
| Time | Latitude | Longitude | Altitude | Speed | Heading |
|---|---|---|---|---|---|
| 2026-05-04 12:39 | 27.78359 | -15.51103 | 48 ft | 0 kts | 126° |
| 2026-05-04 12:41 | 27.78353 | -15.51093 | 48 ft | 2 kts | 117° |
| 2026-05-04 12:41 | 27.78346 | -15.51073 | 48 ft | 7 kts | 134° |
| 2026-05-04 12:41 | 27.78264 | -15.51062 | 42 ft | 18 kts | 219° |
| 2026-05-04 12:41 | 27.78206 | -15.51091 | 38 ft | 0 kts | 89° |
| 2026-05-04 12:43 | 27.78205 | -15.51087 | 38 ft | 1 kts | 149° |
| 2026-05-04 12:43 | 27.78147 | -15.51104 | 33 ft | 16 kts | 227° |
| 2026-05-04 12:43 | 27.78132 | -15.51039 | 34 ft | 35 kts | 67° |
| 2026-05-04 12:43 | 27.78263 | -15.50642 | 161 ft | 58 kts | 68° |
| 2026-05-04 12:44 | 27.78353 | -15.50216 | 380 ft | 57 kts | 74° |
| 2026-05-04 12:44 | 27.78350 | -15.49709 | 476 ft | 84 kts | 115° |
| 2026-05-04 12:44 | 27.77745 | -15.49623 | 499 ft | 110 kts | 212° |
| 2026-05-04 12:44 | 27.77288 | -15.50342 | 536 ft | 116 kts | 238° |
| 2026-05-04 12:45 | 27.76927 | -15.51175 | 594 ft | 118 kts | 263° |
| 2026-05-04 12:45 | 27.77121 | -15.51958 | 900 ft | 94 kts | 309° |
| 2026-05-04 12:45 | 27.77482 | -15.52523 | 1134 ft | 86 kts | 314° |
| 2026-05-04 12:45 | 27.77833 | -15.53041 | 1359 ft | 80 kts | 317° |
| 2026-05-04 12:46 | 27.78187 | -15.53476 | 1579 ft | 73 kts | 324° |
| 2026-05-04 12:46 | 27.78598 | -15.53893 | 1687 ft | 81 kts | 327° |
| 2026-05-04 12:46 | 27.79034 | -15.54289 | 1862 ft | 79 kts | 334° |
| 2026-05-04 12:46 | 27.79516 | -15.54501 | 2049 ft | 72 kts | 357° |
| 2026-05-04 12:47 | 27.79982 | -15.54563 | 2246 ft | 66 kts | 4° |
| 2026-05-04 12:47 | 27.80445 | -15.54625 | 2419 ft | 65 kts | 356° |
| 2026-05-04 12:47 | 27.80896 | -15.54726 | 2541 ft | 69 kts | 2° |
| 2026-05-04 12:47 | 27.81354 | -15.54597 | 2717 ft | 69 kts | 35° |
| 2026-05-04 12:48 | 27.81737 | -15.54221 | 2862 ft | 76 kts | 41° |
| 2026-05-04 12:48 | 27.82198 | -15.53876 | 3037 ft | 80 kts | 37° |
| 2026-05-04 12:48 | 27.82657 | -15.53471 | 3137 ft | 90 kts | 40° |
| 2026-05-04 12:48 | 27.83152 | -15.52974 | 3187 ft | 99 kts | 45° |
| 2026-05-04 12:49 | 27.83691 | -15.52457 | 3239 ft | 102 kts | 42° |
| 2026-05-04 12:49 | 27.84181 | -15.51929 | 3326 ft | 95 kts | 45° |
| 2026-05-04 12:49 | 27.84674 | -15.51466 | 3423 ft | 88 kts | 37° |
| 2026-05-04 12:49 | 27.85173 | -15.51086 | 3487 ft | 86 kts | 36° |
| 2026-05-04 12:50 | 27.85670 | -15.50654 | 3479 ft | 93 kts | 40° |
| 2026-05-04 12:50 | 27.86210 | -15.50209 | 3478 ft | 98 kts | 37° |
| 2026-05-04 12:50 | 27.86764 | -15.49728 | 3475 ft | 102 kts | 40° |
| 2026-05-04 12:50 | 27.87343 | -15.49250 | 3476 ft | 103 kts | 38° |
| 2026-05-04 12:51 | 27.87912 | -15.48746 | 3475 ft | 104 kts | 39° |
| 2026-05-04 12:51 | 27.88480 | -15.48240 | 3475 ft | 104 kts | 39° |
| 2026-05-04 12:51 | 27.89061 | -15.47747 | 3475 ft | 105 kts | 38° |
| 2026-05-04 12:51 | 27.89637 | -15.47233 | 3443 ft | 107 kts | 46° |
| 2026-05-04 12:52 | 27.90020 | -15.46487 | 3280 ft | 111 kts | 72° |
| 2026-05-04 12:52 | 27.90115 | -15.45636 | 3016 ft | 111 kts | 81° |
| 2026-05-04 12:52 | 27.90165 | -15.44761 | 2652 ft | 116 kts | 81° |
| 2026-05-04 12:52 | 27.90239 | -15.43863 | 2256 ft | 111 kts | 81° |
| 2026-05-04 12:53 | 27.90342 | -15.43023 | 1899 ft | 106 kts | 78° |
| 2026-05-04 12:53 | 27.90414 | -15.42216 | 1568 ft | 101 kts | 80° |
| 2026-05-04 12:53 | 27.90486 | -15.41435 | 1226 ft | 100 kts | 77° |
| 2026-05-04 12:53 | 27.90597 | -15.40653 | 902 ft | 99 kts | 82° |
| 2026-05-04 12:54 | 27.90846 | -15.39992 | 618 ft | 87 kts | 61° |
| 2026-05-04 12:54 | 27.91256 | -15.39569 | 409 ft | 76 kts | 44° |
| 2026-05-04 12:54 | 27.91694 | -15.39324 | 210 ft | 67 kts | 24° |
| 2026-05-04 12:54 | 27.92116 | -15.39135 | 91 ft | 57 kts | 24° |
| 2026-05-04 12:55 | 27.92491 | -15.38968 | 121 ft | 67 kts | 22° |
| 2026-05-04 12:55 | 27.92896 | -15.38786 | 375 ft | 62 kts | 21° |
| 2026-05-04 12:55 | 27.93306 | -15.38623 | 570 ft | 64 kts | 22° |
| 2026-05-04 12:55 | 27.93748 | -15.38424 | 801 ft | 68 kts | 26° |
| 2026-05-04 12:56 | 27.94206 | -15.38415 | 1045 ft | 75 kts | 329° |
| 2026-05-04 12:56 | 27.94347 | -15.39053 | 1248 ft | 90 kts | 275° |
| 2026-05-04 12:56 | 27.94349 | -15.39768 | 1485 ft | 91 kts | 274° |
| 2026-05-04 12:56 | 27.94373 | -15.40450 | 1777 ft | 85 kts | 280° |
| 2026-05-04 12:57 | 27.94404 | -15.41097 | 2042 ft | 81 kts | 278° |
| 2026-05-04 12:57 | 27.94447 | -15.41729 | 2270 ft | 81 kts | 279° |
| 2026-05-04 12:57 | 27.94492 | -15.42339 | 2508 ft | 78 kts | 283° |
| 2026-05-04 12:57 | 27.94462 | -15.42973 | 2696 ft | 87 kts | 252° |
| 2026-05-04 12:58 | 27.94008 | -15.43436 | 2835 ft | 96 kts | 210° |
| 2026-05-04 12:58 | 27.93441 | -15.43853 | 3020 ft | 100 kts | 218° |
| 2026-05-04 12:58 | 27.92916 | -15.44350 | 3251 ft | 99 kts | 218° |
| 2026-05-04 12:58 | 27.92373 | -15.44854 | 3419 ft | 104 kts | 219° |
| 2026-05-04 12:59 | 27.91783 | -15.45399 | 3515 ft | 116 kts | 218° |
| 2026-05-04 12:59 | 27.91114 | -15.46033 | 3499 ft | 131 kts | 219° |
| 2026-05-04 12:59 | 27.90399 | -15.46695 | 3493 ft | 133 kts | 220° |
| 2026-05-04 12:59 | 27.89684 | -15.47349 | 3491 ft | 131 kts | 218° |
| 2026-05-04 13:00 | 27.88980 | -15.47993 | 3491 ft | 130 kts | 217° |
| 2026-05-04 13:00 | 27.88263 | -15.48598 | 3492 ft | 129 kts | 216° |
| 2026-05-04 13:00 | 27.87539 | -15.49190 | 3492 ft | 129 kts | 216° |
| 2026-05-04 13:00 | 27.86787 | -15.49780 | 3494 ft | 133 kts | 213° |
| 2026-05-04 13:01 | 27.86030 | -15.50393 | 3493 ft | 136 kts | 215° |
| 2026-05-04 13:01 | 27.85248 | -15.51016 | 3493 ft | 138 kts | 214° |
| 2026-05-04 13:01 | 27.84439 | -15.51517 | 3347 ft | 126 kts | 193° |
| 2026-05-04 13:01 | 27.83605 | -15.51702 | 3085 ft | 121 kts | 183° |
| 2026-05-04 13:02 | 27.82778 | -15.51841 | 2801 ft | 121 kts | 188° |
| 2026-05-04 13:02 | 27.81937 | -15.52043 | 2464 ft | 125 kts | 190° |
| 2026-05-04 13:02 | 27.81091 | -15.52253 | 2135 ft | 126 kts | 193° |
| 2026-05-04 13:02 | 27.80224 | -15.52415 | 1667 ft | 127 kts | 185° |
| 2026-05-04 13:03 | 27.79362 | -15.52472 | 1215 ft | 122 kts | 189° |
| 2026-05-04 13:03 | 27.78571 | -15.52474 | 892 ft | 109 kts | 169° |
| 2026-05-04 13:03 | 27.78058 | -15.51939 | 524 ft | 102 kts | 123° |
| 2026-05-04 13:03 | 27.78059 | -15.51220 | 100 ft | 98 kts | 63° |
| 2026-05-04 13:04 | 27.78287 | -15.50562 | 65 ft | 86 kts | 79° |
| 2026-05-04 13:04 | 27.77869 | -15.50130 | 232 ft | 105 kts | 174° |
| 2026-05-04 13:04 | 27.77354 | -15.50567 | 251 ft | 89 kts | 243° |
| 2026-05-04 13:04 | 27.77368 | -15.51129 | 238 ft | 78 kts | 327° |
| 2026-05-04 13:05 | 27.77796 | -15.51336 | 178 ft | 58 kts | 0° |
| 2026-05-04 13:05 | 27.78093 | -15.51136 | 53 ft | 52 kts | 55° |
| 2026-05-04 13:05 | 27.78207 | -15.50827 | 34 ft | 15 kts | 67° |